EZY707 EGCC-EGAA
Flight info
| Callsign | EZY707 |
|---|---|
| Flight time | 0h 37m |
| Altitude | 22000 |
| Route | EKLAD Y53 WAL M146 IPSET P6 BELZU |
| Aircraft | A320/M-SDE3FGHIRWY/LB1 |
Departure
| Time | 2026-05-04 19:35 |
|---|---|
| Airport | Manchester Airport (EGCC) |
Arrival
| Time | 2026-05-04 20:12 |
|---|---|
| Airport | Belfast International Airport (EGAA) |
| Time | Latitude | Longitude | Altitude | Speed | Heading |
|---|---|---|---|---|---|
| 2026-05-04 19:06 | 53.36468 | -2.27789 | 255 ft | 0 kts | 45° |
| 2026-05-04 19:13 | 53.36468 | -2.27790 | 255 ft | 0 kts | 45° |
| 2026-05-04 19:27 | 53.36462 | -2.27799 | 255 ft | 4 kts | 45° |
| 2026-05-04 19:27 | 53.36443 | -2.27831 | 255 ft | 4 kts | 45° |
| 2026-05-04 19:27 | 53.36428 | -2.27857 | 255 ft | 3 kts | 46° |
| 2026-05-04 19:27 | 53.36415 | -2.27890 | 255 ft | 4 kts | 97° |
| 2026-05-04 19:28 | 53.36426 | -2.27923 | 255 ft | 4 kts | 135° |
| 2026-05-04 19:28 | 53.36442 | -2.27949 | 255 ft | 2 kts | 135° |
| 2026-05-04 19:28 | 53.36455 | -2.27971 | 255 ft | 0 kts | 135° |
| 2026-05-04 19:30 | 53.36453 | -2.27968 | 255 ft | 3 kts | 136° |
| 2026-05-04 19:30 | 53.36415 | -2.27946 | 255 ft | 6 kts | 169° |
| 2026-05-04 19:31 | 53.36382 | -2.27959 | 255 ft | 4 kts | 221° |
| 2026-05-04 19:31 | 53.36344 | -2.28015 | 255 ft | 15 kts | 218° |
| 2026-05-04 19:31 | 53.36205 | -2.28056 | 255 ft | 18 kts | 164° |
| 2026-05-04 19:31 | 53.36102 | -2.27906 | 255 ft | 30 kts | 139° |
| 2026-05-04 19:32 | 53.35907 | -2.27735 | 255 ft | 33 kts | 173° |
| 2026-05-04 19:32 | 53.35709 | -2.27627 | 248 ft | 31 kts | 156° |
| 2026-05-04 19:32 | 53.35632 | -2.27426 | 247 ft | 14 kts | 54° |
| 2026-05-04 19:32 | 53.35706 | -2.27282 | 255 ft | 31 kts | 52° |
| 2026-05-04 19:33 | 53.35850 | -2.26936 | 256 ft | 30 kts | 57° |
| 2026-05-04 19:33 | 53.35978 | -2.26658 | 256 ft | 30 kts | 51° |
| 2026-05-04 19:33 | 53.36115 | -2.26378 | 255 ft | 31 kts | 51° |
| 2026-05-04 19:33 | 53.36227 | -2.26169 | 255 ft | 17 kts | 51° |
| 2026-05-04 19:34 | 53.36272 | -2.25990 | 255 ft | 16 kts | 77° |
| 2026-05-04 19:34 | 53.36279 | -2.25824 | 257 ft | 12 kts | 107° |
| 2026-05-04 19:34 | 53.36195 | -2.25804 | 259 ft | 19 kts | 220° |
| 2026-05-04 19:34 | 53.36088 | -2.26021 | 256 ft | 45 kts | 231° |
| 2026-05-04 19:35 | 53.35738 | -2.26748 | 270 ft | 112 kts | 231° |
| 2026-05-04 19:35 | 53.35122 | -2.28024 | 304 ft | 158 kts | 233° |
| 2026-05-04 19:35 | 53.34470 | -2.29414 | 1098 ft | 148 kts | 235° |
| 2026-05-04 19:35 | 53.33843 | -2.30790 | 1679 ft | 157 kts | 237° |
| 2026-05-04 19:36 | 53.33130 | -2.32381 | 2035 ft | 182 kts | 236° |
| 2026-05-04 19:36 | 53.32446 | -2.34295 | 2440 ft | 202 kts | 258° |
| 2026-05-04 19:36 | 53.32411 | -2.36741 | 2885 ft | 223 kts | 275° |
| 2026-05-04 19:36 | 53.32522 | -2.39476 | 3373 ft | 246 kts | 276° |
| 2026-05-04 19:37 | 53.32611 | -2.42390 | 4124 ft | 256 kts | 268° |
| 2026-05-04 19:37 | 53.32241 | -2.45340 | 5027 ft | 261 kts | 255° |
| 2026-05-04 19:37 | 53.31733 | -2.48216 | 6003 ft | 262 kts | 255° |
| 2026-05-04 19:37 | 53.31192 | -2.51161 | 6881 ft | 266 kts | 253° |
| 2026-05-04 19:38 | 53.30638 | -2.54132 | 7754 ft | 269 kts | 254° |
| 2026-05-04 19:38 | 53.30073 | -2.57153 | 8594 ft | 274 kts | 253° |
| 2026-05-04 19:38 | 53.29502 | -2.60217 | 9513 ft | 276 kts | 254° |
| 2026-05-04 19:38 | 53.28935 | -2.63277 | 10312 ft | 285 kts | 253° |
| 2026-05-04 19:39 | 53.28327 | -2.66569 | 10625 ft | 308 kts | 253° |
| 2026-05-04 19:39 | 53.27675 | -2.70109 | 10993 ft | 328 kts | 253° |
| 2026-05-04 19:39 | 53.26994 | -2.73797 | 11684 ft | 335 kts | 253° |
| 2026-05-04 19:39 | 53.26473 | -2.77624 | 12427 ft | 340 kts | 264° |
| 2026-05-04 19:40 | 53.26492 | -2.81391 | 13200 ft | 344 kts | 277° |
| 2026-05-04 19:40 | 53.27078 | -2.85293 | 13919 ft | 350 kts | 290° |
| 2026-05-04 19:40 | 53.28238 | -2.88887 | 14609 ft | 355 kts | 304° |
| 2026-05-04 19:40 | 53.29710 | -2.92177 | 15244 ft | 359 kts | 306° |
| 2026-05-04 19:41 | 53.31228 | -2.95548 | 15829 ft | 364 kts | 306° |
| 2026-05-04 19:41 | 53.32757 | -2.98956 | 16453 ft | 368 kts | 306° |
| 2026-05-04 19:41 | 53.34282 | -3.02365 | 17057 ft | 372 kts | 305° |
| 2026-05-04 19:41 | 53.35833 | -3.05851 | 17670 ft | 376 kts | 305° |
| 2026-05-04 19:42 | 53.37401 | -3.09386 | 18287 ft | 379 kts | 306° |
| 2026-05-04 19:42 | 53.38997 | -3.12943 | 18791 ft | 384 kts | 308° |
| 2026-05-04 19:42 | 53.40844 | -3.16244 | 19315 ft | 389 kts | 314° |
| 2026-05-04 19:42 | 53.42758 | -3.19488 | 19876 ft | 391 kts | 314° |
| 2026-05-04 19:43 | 53.44679 | -3.22756 | 20419 ft | 395 kts | 315° |
| 2026-05-04 19:43 | 53.46591 | -3.26017 | 20955 ft | 398 kts | 315° |
| 2026-05-04 19:43 | 53.48577 | -3.29409 | 21132 ft | 412 kts | 315° |
| 2026-05-04 19:43 | 53.50617 | -3.32903 | 21267 ft | 424 kts | 315° |
| 2026-05-04 19:44 | 53.52683 | -3.36447 | 21397 ft | 435 kts | 315° |
| 2026-05-04 19:44 | 53.54825 | -3.40128 | 21530 ft | 444 kts | 315° |
| 2026-05-04 19:44 | 53.57000 | -3.43874 | 21665 ft | 451 kts | 314° |
| 2026-05-04 19:44 | 53.58991 | -3.48012 | 21789 ft | 458 kts | 306° |
| 2026-05-04 19:45 | 53.60850 | -3.52421 | 21939 ft | 464 kts | 307° |
| 2026-05-04 19:45 | 53.62721 | -3.56868 | 22059 ft | 465 kts | 306° |
| 2026-05-04 19:45 | 53.64574 | -3.61289 | 22085 ft | 466 kts | 306° |
| 2026-05-04 19:45 | 53.66444 | -3.65755 | 22087 ft | 466 kts | 306° |
| 2026-05-04 19:46 | 53.68315 | -3.70234 | 22079 ft | 466 kts | 306° |
| 2026-05-04 19:46 | 53.70186 | -3.74715 | 22087 ft | 465 kts | 306° |
| 2026-05-04 19:46 | 53.72047 | -3.79176 | 22084 ft | 464 kts | 306° |
| 2026-05-04 19:46 | 53.73884 | -3.83581 | 22082 ft | 464 kts | 306° |
| 2026-05-04 19:47 | 53.75743 | -3.88053 | 22084 ft | 464 kts | 306° |
| 2026-05-04 19:47 | 53.77597 | -3.92521 | 22089 ft | 464 kts | 306° |
| 2026-05-04 19:47 | 53.79455 | -3.97003 | 22088 ft | 463 kts | 305° |
| 2026-05-04 19:47 | 53.81305 | -4.01486 | 22083 ft | 463 kts | 305° |
| 2026-05-04 19:48 | 53.83127 | -4.05912 | 22083 ft | 465 kts | 305° |
| 2026-05-04 19:48 | 53.84991 | -4.10449 | 22087 ft | 472 kts | 305° |
| 2026-05-04 19:48 | 53.86878 | -4.15043 | 22089 ft | 475 kts | 305° |
| 2026-05-04 19:48 | 53.88769 | -4.19649 | 22088 ft | 476 kts | 306° |
| 2026-05-04 19:49 | 53.90635 | -4.24209 | 22078 ft | 475 kts | 305° |
| 2026-05-04 19:49 | 53.92521 | -4.28836 | 22085 ft | 475 kts | 305° |
| 2026-05-04 19:49 | 53.94392 | -4.33437 | 22081 ft | 471 kts | 305° |
| 2026-05-04 19:49 | 53.96234 | -4.37968 | 22081 ft | 471 kts | 305° |
| 2026-05-04 19:50 | 53.98098 | -4.42557 | 22082 ft | 472 kts | 305° |
| 2026-05-04 19:50 | 53.99964 | -4.47149 | 22083 ft | 472 kts | 305° |
| 2026-05-04 19:50 | 54.01866 | -4.51714 | 22069 ft | 472 kts | 309° |
| 2026-05-04 19:50 | 54.04053 | -4.55893 | 22081 ft | 472 kts | 313° |
| 2026-05-04 19:51 | 54.06275 | -4.60008 | 22082 ft | 472 kts | 313° |
| 2026-05-04 19:51 | 54.08478 | -4.64086 | 21884 ft | 460 kts | 313° |
| 2026-05-04 19:51 | 54.10590 | -4.68007 | 21150 ft | 450 kts | 313° |
| 2026-05-04 19:51 | 54.12699 | -4.71936 | 20337 ft | 445 kts | 313° |
| 2026-05-04 19:52 | 54.14775 | -4.75817 | 19798 ft | 435 kts | 312° |
| 2026-05-04 19:52 | 54.16772 | -4.79560 | 19572 ft | 418 kts | 312° |
| 2026-05-04 19:52 | 54.18700 | -4.83180 | 19325 ft | 404 kts | 312° |
| 2026-05-04 19:52 | 54.20540 | -4.86642 | 19093 ft | 393 kts | 312° |
| 2026-05-04 19:53 | 54.22350 | -4.90053 | 18864 ft | 382 kts | 312° |
| 2026-05-04 19:53 | 54.24115 | -4.93372 | 18625 ft | 372 kts | 312° |
| 2026-05-04 19:53 | 54.25286 | -4.95571 | 18466 ft | 368 kts | 312° |
| 2026-05-04 19:53 | 54.27540 | -4.99819 | 18177 ft | 356 kts | 312° |
| 2026-05-04 19:54 | 54.28631 | -5.01880 | 18076 ft | 348 kts | 312° |
| 2026-05-04 19:54 | 54.30740 | -5.05870 | 17898 ft | 333 kts | 312° |
| 2026-05-04 19:54 | 54.31782 | -5.07841 | 17803 ft | 325 kts | 312° |
| 2026-05-04 19:54 | 54.33281 | -5.10679 | 17571 ft | 318 kts | 312° |
| 2026-05-04 19:55 | 54.34742 | -5.13450 | 17208 ft | 316 kts | 311° |
| 2026-05-04 19:55 | 54.36213 | -5.16246 | 16853 ft | 313 kts | 311° |
| 2026-05-04 19:55 | 54.37667 | -5.19012 | 16491 ft | 311 kts | 311° |
| 2026-05-04 19:55 | 54.39112 | -5.21763 | 16158 ft | 309 kts | 311° |
| 2026-05-04 19:56 | 54.40544 | -5.24497 | 15823 ft | 307 kts | 311° |
| 2026-05-04 19:56 | 54.41967 | -5.27218 | 15477 ft | 305 kts | 311° |
| 2026-05-04 19:56 | 54.43381 | -5.29920 | 15132 ft | 303 kts | 311° |
| 2026-05-04 19:56 | 54.44771 | -5.32577 | 14799 ft | 302 kts | 311° |
| 2026-05-04 19:57 | 54.46137 | -5.35339 | 14305 ft | 305 kts | 308° |
| 2026-05-04 19:57 | 54.47523 | -5.38059 | 14077 ft | 300 kts | 312° |
| 2026-05-04 19:57 | 54.48979 | -5.40615 | 13756 ft | 298 kts | 314° |
| 2026-05-04 19:57 | 54.50465 | -5.43138 | 13298 ft | 299 kts | 314° |
| 2026-05-04 19:58 | 54.51756 | -5.45892 | 13009 ft | 293 kts | 299° |
| 2026-05-04 19:58 | 54.52550 | -5.49091 | 12661 ft | 290 kts | 288° |
| 2026-05-04 19:58 | 54.53171 | -5.52334 | 12300 ft | 288 kts | 288° |
| 2026-05-04 19:58 | 54.53783 | -5.55615 | 11956 ft | 286 kts | 287° |
| 2026-05-04 19:59 | 54.54384 | -5.58873 | 11609 ft | 285 kts | 287° |
| 2026-05-04 19:59 | 54.54883 | -5.62189 | 10977 ft | 292 kts | 275° |
| 2026-05-04 19:59 | 54.54913 | -5.65783 | 10308 ft | 304 kts | 269° |
| 2026-05-04 19:59 | 54.54850 | -5.69371 | 10125 ft | 294 kts | 269° |
| 2026-05-04 20:00 | 54.54779 | -5.72822 | 10071 ft | 282 kts | 269° |
| 2026-05-04 20:00 | 54.54708 | -5.76140 | 10085 ft | 279 kts | 269° |
| 2026-05-04 20:00 | 54.54635 | -5.79495 | 10082 ft | 278 kts | 269° |
| 2026-05-04 20:00 | 54.54561 | -5.82828 | 10084 ft | 278 kts | 269° |
| 2026-05-04 20:01 | 54.54488 | -5.86133 | 10085 ft | 278 kts | 269° |
| 2026-05-04 20:01 | 54.54414 | -5.89461 | 10083 ft | 278 kts | 269° |
| 2026-05-04 20:01 | 54.54340 | -5.92813 | 10083 ft | 279 kts | 269° |
| 2026-05-04 20:01 | 54.54265 | -5.96152 | 10083 ft | 279 kts | 269° |
| 2026-05-04 20:02 | 54.54191 | -5.99488 | 10090 ft | 279 kts | 269° |
| 2026-05-04 20:02 | 54.54117 | -6.02785 | 10084 ft | 279 kts | 269° |
| 2026-05-04 20:02 | 54.54041 | -6.06124 | 10086 ft | 279 kts | 269° |
| 2026-05-04 20:02 | 54.53966 | -6.09469 | 10109 ft | 278 kts | 269° |
| 2026-05-04 20:03 | 54.53891 | -6.12810 | 10108 ft | 278 kts | 269° |
| 2026-05-04 20:03 | 54.53814 | -6.16134 | 10046 ft | 277 kts | 269° |
| 2026-05-04 20:03 | 54.53738 | -6.19387 | 9783 ft | 270 kts | 269° |
| 2026-05-04 20:03 | 54.53661 | -6.22562 | 9646 ft | 260 kts | 269° |
| 2026-05-04 20:04 | 54.53583 | -6.25656 | 9158 ft | 262 kts | 269° |
| 2026-05-04 20:04 | 54.53503 | -6.28853 | 8579 ft | 269 kts | 269° |
| 2026-05-04 20:04 | 54.53422 | -6.32030 | 8165 ft | 268 kts | 269° |
| 2026-05-04 20:04 | 54.53337 | -6.35240 | 7774 ft | 266 kts | 269° |
| 2026-05-04 20:05 | 54.53120 | -6.38390 | 7387 ft | 266 kts | 253° |
| 2026-05-04 20:05 | 54.52269 | -6.41227 | 6989 ft | 267 kts | 240° |
| 2026-05-04 20:05 | 54.51251 | -6.43902 | 6594 ft | 266 kts | 238° |
| 2026-05-04 20:05 | 54.50239 | -6.46520 | 6161 ft | 265 kts | 238° |
| 2026-05-04 20:06 | 54.49248 | -6.49192 | 5734 ft | 263 kts | 245° |
| 2026-05-04 20:06 | 54.48838 | -6.52193 | 5315 ft | 257 kts | 274° |
| 2026-05-04 20:06 | 54.49334 | -6.55094 | 4877 ft | 254 kts | 303° |
| 2026-05-04 20:06 | 54.50575 | -6.57141 | 4408 ft | 253 kts | 331° |
| 2026-05-04 20:07 | 54.52181 | -6.58370 | 4053 ft | 251 kts | 339° |
| 2026-05-04 20:07 | 54.53906 | -6.58817 | 4015 ft | 255 kts | 6° |
| 2026-05-04 20:07 | 54.55492 | -6.57771 | 4042 ft | 231 kts | 33° |
| 2026-05-04 20:07 | 54.56664 | -6.56191 | 4034 ft | 195 kts | 38° |
| 2026-05-04 20:08 | 54.57604 | -6.54775 | 4038 ft | 172 kts | 43° |
| 2026-05-04 20:08 | 54.58360 | -6.53220 | 4034 ft | 172 kts | 55° |
| 2026-05-04 20:08 | 54.58820 | -6.51301 | 4037 ft | 175 kts | 74° |
| 2026-05-04 20:08 | 54.59074 | -6.49229 | 4038 ft | 176 kts | 77° |
| 2026-05-04 20:09 | 54.59315 | -6.47162 | 4035 ft | 176 kts | 77° |
| 2026-05-04 20:09 | 54.59451 | -6.45059 | 4036 ft | 177 kts | 75° |
| 2026-05-04 20:09 | 54.59915 | -6.43107 | 4038 ft | 175 kts | 59° |
| 2026-05-04 20:09 | 54.60455 | -6.41241 | 3845 ft | 173 kts | 59° |
| 2026-05-04 20:10 | 54.60938 | -6.39328 | 3547 ft | 174 kts | 67° |
| 2026-05-04 20:10 | 54.61432 | -6.37337 | 3173 ft | 193 kts | 59° |
| 2026-05-04 20:10 | 54.62015 | -6.35322 | 2675 ft | 184 kts | 61° |
| 2026-05-04 20:10 | 54.62533 | -6.33305 | 2083 ft | 181 kts | 62° |
| 2026-05-04 20:11 | 54.63061 | -6.31424 | 1678 ft | 171 kts | 60° |
| 2026-05-04 20:11 | 54.63562 | -6.29600 | 1327 ft | 166 kts | 62° |
| 2026-05-04 20:11 | 54.64047 | -6.27808 | 969 ft | 163 kts | 60° |
| 2026-05-04 20:11 | 54.64541 | -6.26073 | 627 ft | 159 kts | 62° |
| 2026-05-04 20:12 | 54.64993 | -6.24391 | 393 ft | 152 kts | 63° |
| 2026-05-04 20:12 | 54.65430 | -6.22767 | 236 ft | 140 kts | 64° |
| 2026-05-04 20:12 | 54.65756 | -6.21550 | 239 ft | 60 kts | 65° |
| 2026-05-04 20:12 | 54.65876 | -6.21337 | 240 ft | 16 kts | 357° |
| 2026-05-04 20:13 | 54.65930 | -6.21371 | 241 ft | 0 kts | 336° |
| 2026-05-04 20:15 | 54.65990 | -6.21405 | 241 ft | 15 kts | 340° |
| 2026-05-04 20:15 | 54.66057 | -6.21458 | 240 ft | 8 kts | 335° |
| 2026-05-04 20:15 | 54.66085 | -6.21481 | 240 ft | 1 kts | 335° |
| 2026-05-04 20:16 | 54.66089 | -6.21484 | 240 ft | 0 kts | 335° |
| 2026-05-04 20:16 | 54.66089 | -6.21485 | 240 ft | 0 kts | 335° |